sensor_id;sensor_type;location;lat;lon;timestamp;pressure;altitude;pressure_sealevel;temperature;humidity
50302;BME280;36550;50.472;19.744;2023-05-09T00:02:39;99164.19;;;2.31;69.21
50302;BME280;36550;50.472;19.744;2023-05-09T00:06:24;99157.09;;;2.28;69.38
50302;BME280;36550;50.472;19.744;2023-05-09T00:10:09;99156.95;;;2.24;69.47
50302;BME280;36550;50.472;19.744;2023-05-09T00:13:54;99157.20;;;2.18;69.47
50302;BME280;36550;50.472;19.744;2023-05-09T00:17:38;99151.55;;;2.13;69.54
50302;BME280;36550;50.472;19.744;2023-05-09T00:21:23;99154.16;;;2.09;69.66
50302;BME280;36550;50.472;19.744;2023-05-09T00:25:07;99155.02;;;2.06;69.85
50302;BME280;36550;50.472;19.744;2023-05-09T00:28:52;99151.19;;;2.01;69.79
50302;BME280;36550;50.472;19.744;2023-05-09T00:32:36;99156.41;;;2.02;69.87
50302;BME280;36550;50.472;19.744;2023-05-09T00:36:21;99153.02;;;1.96;69.69
50302;BME280;36550;50.472;19.744;2023-05-09T00:40:08;99152.73;;;1.90;69.88
50302;BME280;36550;50.472;19.744;2023-05-09T00:43:53;99147.80;;;1.84;69.92
50302;BME280;36550;50.472;19.744;2023-05-09T00:47:38;99148.64;;;1.79;70.11
50302;BME280;36550;50.472;19.744;2023-05-09T00:51:23;99144.40;;;1.72;70.05
50302;BME280;36550;50.472;19.744;2023-05-09T00:55:11;99147.50;;;1.67;70.10
50302;BME280;36550;50.472;19.744;2023-05-09T00:58:55;99142.73;;;1.61;70.12
50302;BME280;36550;50.472;19.744;2023-05-09T01:02:43;99139.74;;;1.60;70.17
50302;BME280;36550;50.472;19.744;2023-05-09T01:06:37;99143.55;;;1.64;70.28
50302;BME280;36550;50.472;19.744;2023-05-09T01:10:49;99141.29;;;1.67;70.48
50302;BME280;36550;50.472;19.744;2023-05-09T01:18:32;99139.34;;;1.68;70.32
50302;BME280;36550;50.472;19.744;2023-05-09T01:22:07;99136.99;;;1.62;70.38
50302;BME280;36550;50.472;19.744;2023-05-09T01:26:02;99129.60;;;1.58;70.57
50302;BME280;36550;50.472;19.744;2023-05-09T01:30:04;99131.89;;;1.54;70.59
50302;BME280;36550;50.472;19.744;2023-05-09T01:33:51;99131.80;;;1.49;70.59
50302;BME280;36550;50.472;19.744;2023-05-09T01:37:34;99129.27;;;1.42;70.41
50302;BME280;36550;50.472;19.744;2023-05-09T01:41:18;99128.95;;;1.36;70.39
50302;BME280;36550;50.472;19.744;2023-05-09T01:45:02;99124.67;;;1.36;70.44
50302;BME280;36550;50.472;19.744;2023-05-09T01:48:48;99123.71;;;1.39;70.68
50302;BME280;36550;50.472;19.744;2023-05-09T01:52:32;99121.08;;;1.43;70.82
50302;BME280;36550;50.472;19.744;2023-05-09T01:56:16;99117.94;;;1.45;70.94
50302;BME280;36550;50.472;19.744;2023-05-09T02:00:01;99119.18;;;1.45;71.08
50302;BME280;36550;50.472;19.744;2023-05-09T02:03:46;99117.85;;;1.42;71.03
50302;BME280;36550;50.472;19.744;2023-05-09T02:07:30;99116.14;;;1.39;71.13
50302;BME280;36550;50.472;19.744;2023-05-09T02:11:14;99112.06;;;1.36;71.16
50302;BME280;36550;50.472;19.744;2023-05-09T02:14:59;99104.46;;;1.34;71.28
50302;BME280;36550;50.472;19.744;2023-05-09T02:18:44;99103.54;;;1.28;71.03
50302;BME280;36550;50.472;19.744;2023-05-09T02:22:28;99106.83;;;1.22;70.95
50302;BME280;36550;50.472;19.744;2023-05-09T02:26:13;99105.77;;;1.24;71.10
50302;BME280;36550;50.472;19.744;2023-05-09T02:30:04;99102.63;;;1.30;71.36
50302;BME280;36550;50.472;19.744;2023-05-09T02:33:48;99105.27;;;1.35;71.70
50302;BME280;36550;50.472;19.744;2023-05-09T02:37:33;99103.09;;;1.36;71.71
50302;BME280;36550;50.472;19.744;2023-05-09T02:41:17;99102.35;;;1.33;71.58
50302;BME280;36550;50.472;19.744;2023-05-09T02:45:01;99103.64;;;1.29;71.69
50302;BME280;36550;50.472;19.744;2023-05-09T02:48:46;99102.40;;;1.25;71.55
50302;BME280;36550;50.472;19.744;2023-05-09T02:52:31;99101.61;;;1.19;71.61
50302;BME280;36550;50.472;19.744;2023-05-09T02:56:16;99101.62;;;1.18;71.53
50302;BME280;36550;50.472;19.744;2023-05-09T03:00:00;99103.58;;;1.19;71.52
50302;BME280;36550;50.472;19.744;2023-05-09T03:03:44;99103.73;;;1.21;71.56
50302;BME280;36550;50.472;19.744;2023-05-09T03:07:29;99102.71;;;1.24;71.56
50302;BME280;36550;50.472;19.744;2023-05-09T03:11:13;99100.62;;;1.24;71.54
50302;BME280;36550;50.472;19.744;2023-05-09T03:14:58;99099.19;;;1.19;71.42
50302;BME280;36550;50.472;19.744;2023-05-09T03:18:43;99102.19;;;1.13;71.31
50302;BME280;36550;50.472;19.744;2023-05-09T03:22:27;99098.80;;;1.11;71.44
50302;BME280;36550;50.472;19.744;2023-05-09T03:26:11;99097.63;;;1.12;71.61
50302;BME280;36550;50.472;19.744;2023-05-09T03:29:56;99102.48;;;1.17;71.77
50302;BME280;36550;50.472;19.744;2023-05-09T03:33:40;99106.44;;;1.24;71.91
50302;BME280;36550;50.472;19.744;2023-05-09T03:37:25;99108.01;;;1.30;71.80
50302;BME280;36550;50.472;19.744;2023-05-09T03:41:11;99110.72;;;1.41;71.99
50302;BME280;36550;50.472;19.744;2023-05-09T03:44:54;99109.48;;;1.56;72.05
50302;BME280;36550;50.472;19.744;2023-05-09T03:48:39;99110.10;;;1.80;72.42
50302;BME280;36550;50.472;19.744;2023-05-09T03:52:24;99118.98;;;2.03;72.51
50302;BME280;36550;50.472;19.744;2023-05-09T03:56:08;99116.98;;;2.32;72.85
50302;BME280;36550;50.472;19.744;2023-05-09T03:59:53;99114.77;;;2.66;73.05
50302;BME280;36550;50.472;19.744;2023-05-09T04:03:37;99115.37;;;2.96;73.00
50302;BME280;36550;50.472;19.744;2023-05-09T04:07:22;99111.30;;;3.19;72.90
50302;BME280;36550;50.472;19.744;2023-05-09T04:11:07;99111.88;;;3.37;72.82
50302;BME280;36550;50.472;19.744;2023-05-09T04:14:51;99109.69;;;3.59;72.81
50302;BME280;36550;50.472;19.744;2023-05-09T04:18:36;99109.59;;;3.85;72.63
50302;BME280;36550;50.472;19.744;2023-05-09T04:22:21;99109.80;;;4.10;72.57
50302;BME280;36550;50.472;19.744;2023-05-09T04:26:05;99109.82;;;4.36;72.61
50302;BME280;36550;50.472;19.744;2023-05-09T04:29:49;99107.18;;;4.60;72.64
50302;BME280;36550;50.472;19.744;2023-05-09T04:33:34;99104.19;;;4.84;72.64
50302;BME280;36550;50.472;19.744;2023-05-09T04:37:18;99103.91;;;5.10;72.62
50302;BME280;36550;50.472;19.744;2023-05-09T04:41:03;99099.89;;;5.46;72.73
50302;BME280;36550;50.472;19.744;2023-05-09T04:44:48;99100.89;;;5.88;72.63
50302;BME280;36550;50.472;19.744;2023-05-09T04:48:33;99104.02;;;6.30;72.39
50302;BME280;36550;50.472;19.744;2023-05-09T04:52:16;99110.32;;;6.74;72.13
50302;BME280;36550;50.472;19.744;2023-05-09T04:56:01;99109.97;;;7.21;72.01
50302;BME280;36550;50.472;19.744;2023-05-09T04:59:45;99106.30;;;7.68;71.53
50302;BME280;36550;50.472;19.744;2023-05-09T05:03:30;99103.20;;;8.03;71.14
50302;BME280;36550;50.472;19.744;2023-05-09T05:07:14;99102.29;;;8.24;70.40
50302;BME280;36550;50.472;19.744;2023-05-09T05:10:58;99102.28;;;8.24;69.86
50302;BME280;36550;50.472;19.744;2023-05-09T05:14:43;99103.27;;;8.21;69.55
50302;BME280;36550;50.472;19.744;2023-05-09T05:18:28;99102.91;;;8.20;69.57
50302;BME280;36550;50.472;19.744;2023-05-09T05:21:53;99097.90;;;8.24;69.41
50302;BME280;36550;50.472;19.744;2023-05-09T05:25:37;99097.33;;;8.27;69.45
50302;BME280;36550;50.472;19.744;2023-05-09T05:29:21;99092.66;;;8.28;69.40
50302;BME280;36550;50.472;19.744;2023-05-09T05:33:06;99093.59;;;8.40;69.38
50302;BME280;36550;50.472;19.744;2023-05-09T05:36:50;99090.34;;;8.65;69.48
50302;BME280;36550;50.472;19.744;2023-05-09T05:40:35;99091.51;;;9.09;69.48
50302;BME280;36550;50.472;19.744;2023-05-09T05:44:20;99088.59;;;9.57;69.50
50302;BME280;36550;50.472;19.744;2023-05-09T05:48:04;99087.28;;;10.02;69.51
50302;BME280;36550;50.472;19.744;2023-05-09T05:51:49;99085.35;;;10.35;69.41
50302;BME280;36550;50.472;19.744;2023-05-09T05:55:33;99083.27;;;10.60;68.97
50302;BME280;36550;50.472;19.744;2023-05-09T05:59:17;99085.59;;;10.75;67.72
50302;BME280;36550;50.472;19.744;2023-05-09T06:03:01;99083.13;;;10.80;66.64
50302;BME280;36550;50.472;19.744;2023-05-09T06:06:46;99084.95;;;10.81;65.67
50302;BME280;36550;50.472;19.744;2023-05-09T06:10:30;99084.80;;;10.78;65.47
50302;BME280;36550;50.472;19.744;2023-05-09T06:14:15;99083.52;;;10.76;65.38
50302;BME280;36550;50.472;19.744;2023-05-09T06:17:59;99079.52;;;10.76;64.62
50302;BME280;36550;50.472;19.744;2023-05-09T06:21:44;99074.43;;;10.76;64.76
50302;BME280;36550;50.472;19.744;2023-05-09T06:25:28;99076.38;;;10.76;64.24
50302;BME280;36550;50.472;19.744;2023-05-09T06:29:12;99075.92;;;10.75;63.75
50302;BME280;36550;50.472;19.744;2023-05-09T06:32:57;99071.30;;;10.80;63.94
50302;BME280;36550;50.472;19.744;2023-05-09T06:36:41;99070.98;;;10.84;63.06
50302;BME280;36550;50.472;19.744;2023-05-09T06:40:25;99066.77;;;10.82;62.52
50302;BME280;36550;50.472;19.744;2023-05-09T06:44:10;99074.46;;;10.85;62.87
50302;BME280;36550;50.472;19.744;2023-05-09T06:47:54;99073.38;;;10.85;61.93
50302;BME280;36550;50.472;19.744;2023-05-09T06:51:38;99072.33;;;10.86;61.70
50302;BME280;36550;50.472;19.744;2023-05-09T06:55:23;99070.46;;;10.87;61.18
50302;BME280;36550;50.472;19.744;2023-05-09T06:59:07;99063.31;;;10.87;60.88
50302;BME280;36550;50.472;19.744;2023-05-09T07:02:52;99065.05;;;10.92;60.78
50302;BME280;36550;50.472;19.744;2023-05-09T07:06:36;99063.34;;;10.98;60.54
50302;BME280;36550;50.472;19.744;2023-05-09T07:10:21;99064.69;;;11.03;60.60
50302;BME280;36550;50.472;19.744;2023-05-09T07:14:14;99061.69;;;11.11;60.58
50302;BME280;36550;50.472;19.744;2023-05-09T07:17:58;99059.98;;;11.19;60.03
50302;BME280;36550;50.472;19.744;2023-05-09T07:21:42;99055.73;;;11.26;59.33
50302;BME280;36550;50.472;19.744;2023-05-09T07:25:27;99045.85;;;11.32;58.97
50302;BME280;36550;50.472;19.744;2023-05-09T07:29:11;99049.70;;;11.35;58.32
50302;BME280;36550;50.472;19.744;2023-05-09T07:32:56;99050.61;;;11.36;57.97
50302;BME280;36550;50.472;19.744;2023-05-09T07:36:40;99046.23;;;11.41;58.05
50302;BME280;36550;50.472;19.744;2023-05-09T07:40:25;99040.19;;;11.48;57.91
50302;BME280;36550;50.472;19.744;2023-05-09T07:44:09;99035.42;;;11.67;57.75
50302;BME280;36550;50.472;19.744;2023-05-09T07:47:54;99032.46;;;11.82;57.19
50302;BME280;36550;50.472;19.744;2023-05-09T07:51:38;99031.84;;;11.89;57.23
50302;BME280;36550;50.472;19.744;2023-05-09T07:55:23;99028.02;;;11.92;56.90
50302;BME280;36550;50.472;19.744;2023-05-09T07:59:07;99031.20;;;11.93;56.21
50302;BME280;36550;50.472;19.744;2023-05-09T08:02:52;99030.64;;;11.93;56.12
50302;BME280;36550;50.472;19.744;2023-05-09T08:06:37;99019.88;;;11.98;56.37
50302;BME280;36550;50.472;19.744;2023-05-09T08:10:21;99032.64;;;12.08;56.21
50302;BME280;36550;50.472;19.744;2023-05-09T08:14:05;99020.73;;;12.08;55.45
50302;BME280;36550;50.472;19.744;2023-05-09T08:17:50;99013.83;;;12.11;54.87
50302;BME280;36550;50.472;19.744;2023-05-09T08:21:34;99008.05;;;12.13;54.38
50302;BME280;36550;50.472;19.744;2023-05-09T08:25:19;99007.80;;;12.11;53.69
50302;BME280;36550;50.472;19.744;2023-05-09T08:29:02;99011.95;;;12.09;53.36
50302;BME280;36550;50.472;19.744;2023-05-09T08:32:47;99006.25;;;12.07;52.60
50302;BME280;36550;50.472;19.744;2023-05-09T08:36:31;98998.87;;;12.09;53.59
50302;BME280;36550;50.472;19.744;2023-05-09T08:40:16;99000.17;;;12.16;53.23
50302;BME280;36550;50.472;19.744;2023-05-09T08:44:00;98995.77;;;12.19;53.69
50302;BME280;36550;50.472;19.744;2023-05-09T08:47:44;98999.77;;;12.26;53.57
50302;BME280;36550;50.472;19.744;2023-05-09T08:51:29;98990.11;;;12.28;53.61
50302;BME280;36550;50.472;19.744;2023-05-09T08:55:13;98986.13;;;12.29;53.23
50302;BME280;36550;50.472;19.744;2023-05-09T08:58:57;98984.20;;;12.31;53.73
50302;BME280;36550;50.472;19.744;2023-05-09T09:02:42;98986.27;;;12.40;53.98
50302;BME280;36550;50.472;19.744;2023-05-09T09:06:29;98989.32;;;12.44;53.94
50302;BME280;36550;50.472;19.744;2023-05-09T09:10:13;98989.19;;;12.43;53.81
50302;BME280;36550;50.472;19.744;2023-05-09T09:13:59;98990.43;;;12.48;53.56
50302;BME280;36550;50.472;19.744;2023-05-09T09:17:42;98986.73;;;12.49;53.35
50302;BME280;36550;50.472;19.744;2023-05-09T09:21:27;98978.89;;;12.51;53.63
50302;BME280;36550;50.472;19.744;2023-05-09T09:25:10;98975.63;;;12.60;52.87
50302;BME280;36550;50.472;19.744;2023-05-09T09:28:55;98973.72;;;12.65;52.54
50302;BME280;36550;50.472;19.744;2023-05-09T09:32:39;98966.77;;;12.89;53.13
50302;BME280;36550;50.472;19.744;2023-05-09T09:36:27;98963.50;;;12.99;52.76
50302;BME280;36550;50.472;19.744;2023-05-09T09:40:13;98964.27;;;13.02;52.06
50302;BME280;36550;50.472;19.744;2023-05-09T09:43:58;98968.91;;;13.01;50.69
50302;BME280;36550;50.472;19.744;2023-05-09T09:47:43;98969.91;;;13.01;50.32
50302;BME280;36550;50.472;19.744;2023-05-09T09:51:08;98961.75;;;13.12;50.93
50302;BME280;36550;50.472;19.744;2023-05-09T09:54:33;98961.70;;;13.21;50.17
50302;BME280;36550;50.472;19.744;2023-05-09T09:58:17;98955.99;;;13.18;49.85
50302;BME280;36550;50.472;19.744;2023-05-09T10:02:14;98953.21;;;13.14;49.73
50302;BME280;36550;50.472;19.744;2023-05-09T10:06:00;98951.37;;;13.18;49.64
50302;BME280;36550;50.472;19.744;2023-05-09T10:09:43;98950.98;;;13.21;49.25
50302;BME280;36550;50.472;19.744;2023-05-09T10:13:27;98948.29;;;13.22;48.49
50302;BME280;36550;50.472;19.744;2023-05-09T10:17:12;98945.61;;;13.25;48.49
50302;BME280;36550;50.472;19.744;2023-05-09T10:20:56;98949.60;;;13.27;48.56
50302;BME280;36550;50.472;19.744;2023-05-09T10:24:47;98947.90;;;13.31;48.93
50302;BME280;36550;50.472;19.744;2023-05-09T10:28:31;98936.27;;;13.47;48.96
50302;BME280;36550;50.472;19.744;2023-05-09T10:32:15;98936.95;;;13.56;49.74
50302;BME280;36550;50.472;19.744;2023-05-09T10:35:59;98934.90;;;13.61;48.87
50302;BME280;36550;50.472;19.744;2023-05-09T10:39:43;98929.89;;;13.64;48.78
50302;BME280;36550;50.472;19.744;2023-05-09T10:43:27;98930.03;;;13.74;48.78
50302;BME280;36550;50.472;19.744;2023-05-09T10:47:11;98931.99;;;14.00;48.48
50302;BME280;36550;50.472;19.744;2023-05-09T10:50:56;98912.76;;;14.10;48.38
50302;BME280;36550;50.472;19.744;2023-05-09T10:55:02;98913.95;;;14.20;48.04
50302;BME280;36550;50.472;19.744;2023-05-09T10:58:48;98912.55;;;14.23;47.76
50302;BME280;36550;50.472;19.744;2023-05-09T11:02:33;98913.24;;;14.21;47.80
50302;BME280;36550;50.472;19.744;2023-05-09T11:06:51;98906.21;;;14.23;47.84
50302;BME280;36550;50.472;19.744;2023-05-09T11:10:14;98908.91;;;14.29;46.82
50302;BME280;36550;50.472;19.744;2023-05-09T11:13:57;98905.11;;;14.16;46.27
50302;BME280;36550;50.472;19.744;2023-05-09T11:17:42;98900.84;;;14.04;46.32
50302;BME280;36550;50.472;19.744;2023-05-09T11:21:27;98894.77;;;13.94;46.58
50302;BME280;36550;50.472;19.744;2023-05-09T11:25:12;98890.75;;;13.90;47.46
50302;BME280;36550;50.472;19.744;2023-05-09T11:28:57;98885.05;;;13.98;47.33
50302;BME280;36550;50.472;19.744;2023-05-09T11:32:42;98884.11;;;14.05;47.10
50302;BME280;36550;50.472;19.744;2023-05-09T11:36:36;98875.02;;;14.13;46.89
50302;BME280;36550;50.472;19.744;2023-05-09T11:40:21;98865.73;;;14.13;46.57
50302;BME280;36550;50.472;19.744;2023-05-09T11:44:14;98856.33;;;14.18;46.81
50302;BME280;36550;50.472;19.744;2023-05-09T11:47:49;98854.64;;;14.16;46.79
50302;BME280;36550;50.472;19.744;2023-05-09T11:51:37;98850.26;;;14.04;46.14
50302;BME280;36550;50.472;19.744;2023-05-09T11:55:21;98843.52;;;13.92;46.23
50302;BME280;36550;50.472;19.744;2023-05-09T11:59:06;98836.70;;;13.93;46.90
50302;BME280;36550;50.472;19.744;2023-05-09T12:02:51;98837.20;;;13.97;46.62
50302;BME280;36550;50.472;19.744;2023-05-09T12:06:38;98839.53;;;13.95;46.07
50302;BME280;36550;50.472;19.744;2023-05-09T12:10:26;98836.29;;;13.96;46.12
50302;BME280;36550;50.472;19.744;2023-05-09T12:14:10;98832.90;;;13.98;46.30
50302;BME280;36550;50.472;19.744;2023-05-09T12:18:04;98827.49;;;14.03;46.16
50302;BME280;36550;50.472;19.744;2023-05-09T12:21:47;98819.28;;;14.10;45.98
50302;BME280;36550;50.472;19.744;2023-05-09T12:25:32;98807.27;;;14.17;45.33
50302;BME280;36550;50.472;19.744;2023-05-09T12:29:17;98805.21;;;14.23;46.12
50302;BME280;36550;50.472;19.744;2023-05-09T12:33:01;98802.56;;;14.30;46.23
50302;BME280;36550;50.472;19.744;2023-05-09T12:36:49;98801.59;;;14.34;46.25
50302;BME280;36550;50.472;19.744;2023-05-09T12:40:34;98793.27;;;14.37;45.97
50302;BME280;36550;50.472;19.744;2023-05-09T12:44:19;98790.96;;;14.41;46.20
50302;BME280;36550;50.472;19.744;2023-05-09T12:48:02;98782.15;;;14.55;45.54
50302;BME280;36550;50.472;19.744;2023-05-09T12:51:50;98780.17;;;14.72;45.07
50302;BME280;36550;50.472;19.744;2023-05-09T12:55:38;98776.28;;;14.82;45.02
50302;BME280;36550;50.472;19.744;2023-05-09T12:59:22;98769.94;;;14.89;44.51
50302;BME280;36550;50.472;19.744;2023-05-09T13:03:18;98767.39;;;15.05;44.48
50302;BME280;36550;50.472;19.744;2023-05-09T13:06:53;98753.48;;;15.35;43.54
50302;BME280;36550;50.472;19.744;2023-05-09T13:10:38;98760.91;;;15.42;43.43
50302;BME280;36550;50.472;19.744;2023-05-09T13:14:22;98758.89;;;15.22;43.98
50302;BME280;36550;50.472;19.744;2023-05-09T13:18:10;98752.61;;;15.07;44.36
50302;BME280;36550;50.472;19.744;2023-05-09T13:21:54;98747.02;;;15.03;44.02
50302;BME280;36550;50.472;19.744;2023-05-09T13:25:38;98748.39;;;15.12;43.51
50302;BME280;36550;50.472;19.744;2023-05-09T13:29:07;98743.45;;;15.02;43.44
50302;BME280;36550;50.472;19.744;2023-05-09T13:32:51;98735.45;;;14.91;44.15
50302;BME280;36550;50.472;19.744;2023-05-09T13:36:35;98733.09;;;14.92;43.88
50302;BME280;36550;50.472;19.744;2023-05-09T13:40:19;98733.29;;;14.96;43.05
50302;BME280;36550;50.472;19.744;2023-05-09T13:44:04;98732.95;;;14.94;43.20
50302;BME280;36550;50.472;19.744;2023-05-09T13:47:49;98721.61;;;15.01;43.08
50302;BME280;36550;50.472;19.744;2023-05-09T13:51:33;98716.20;;;15.03;42.78
50302;BME280;36550;50.472;19.744;2023-05-09T13:55:18;98712.02;;;15.12;43.18
50302;BME280;36550;50.472;19.744;2023-05-09T13:59:02;98712.66;;;15.31;43.21
50302;BME280;36550;50.472;19.744;2023-05-09T14:02:47;98707.92;;;15.29;42.76
50302;BME280;36550;50.472;19.744;2023-05-09T14:06:32;98704.00;;;15.41;42.53
50302;BME280;36550;50.472;19.744;2023-05-09T14:10:17;98702.02;;;15.54;42.42
50302;BME280;36550;50.472;19.744;2023-05-09T14:14:01;98706.38;;;15.46;42.92
50302;BME280;36550;50.472;19.744;2023-05-09T14:17:45;98702.23;;;15.44;42.87
50302;BME280;36550;50.472;19.744;2023-05-09T14:21:30;98690.88;;;15.58;42.87
50302;BME280;36550;50.472;19.744;2023-05-09T14:25:13;98689.85;;;15.55;42.46
50302;BME280;36550;50.472;19.744;2023-05-09T14:28:58;98685.80;;;15.42;42.53
50302;BME280;36550;50.472;19.744;2023-05-09T14:32:03;98680.87;;;15.41;43.37
50302;BME280;36550;50.472;19.744;2023-05-09T14:35:09;98680.77;;;15.47;43.42
50302;BME280;36550;50.472;19.744;2023-05-09T14:37:54;98684.64;;;15.42;42.65
50302;BME280;36550;50.472;19.744;2023-05-09T14:40:53;98686.63;;;15.30;43.11
50302;BME280;36550;50.472;19.744;2023-05-09T14:44:24;98680.95;;;15.13;42.85
50302;BME280;36550;50.472;19.744;2023-05-09T14:47:33;98678.69;;;15.06;42.85
50302;BME280;36550;50.472;19.744;2023-05-09T14:50:18;98676.48;;;15.15;43.19
50302;BME280;36550;50.472;19.744;2023-05-09T14:53:09;98676.44;;;15.32;43.50
50302;BME280;36550;50.472;19.744;2023-05-09T14:55:58;98676.17;;;15.47;43.11
50302;BME280;36550;50.472;19.744;2023-05-09T14:58:45;98673.72;;;15.51;42.92
50302;BME280;36550;50.472;19.744;2023-05-09T15:01:29;98673.52;;;15.47;42.19
50302;BME280;36550;50.472;19.744;2023-05-09T15:04:20;98669.44;;;15.40;42.31
50302;BME280;36550;50.472;19.744;2023-05-09T15:07:41;98660.11;;;15.38;42.41
50302;BME280;36550;50.472;19.744;2023-05-09T15:10:40;98650.59;;;15.44;41.89
50302;BME280;36550;50.472;19.744;2023-05-09T15:13:25;98648.54;;;15.51;41.48
50302;BME280;36550;50.472;19.744;2023-05-09T15:16:23;98643.55;;;15.61;41.85
50302;BME280;36550;50.472;19.744;2023-05-09T15:19:09;98646.17;;;15.64;41.78
50302;BME280;36550;50.472;19.744;2023-05-09T15:21:53;98640.90;;;15.61;42.26
50302;BME280;36550;50.472;19.744;2023-05-09T15:24:37;98641.75;;;15.54;42.26
50302;BME280;36550;50.472;19.744;2023-05-09T15:27:25;98639.20;;;15.49;42.02
50302;BME280;36550;50.472;19.744;2023-05-09T15:30:23;98640.84;;;15.42;41.80
50302;BME280;36550;50.472;19.744;2023-05-09T15:33:22;98638.34;;;15.35;42.00
50302;BME280;36550;50.472;19.744;2023-05-09T15:36:09;98635.95;;;15.23;41.67
50302;BME280;36550;50.472;19.744;2023-05-09T15:38:53;98632.34;;;15.07;41.93
50302;BME280;36550;50.472;19.744;2023-05-09T15:41:59;98625.75;;;14.89;42.35
50302;BME280;36550;50.472;19.744;2023-05-09T15:44:44;98625.95;;;14.70;42.56
50302;BME280;36550;50.472;19.744;2023-05-09T15:47:30;98618.42;;;14.57;42.87
50302;BME280;36550;50.472;19.744;2023-05-09T15:50:14;98619.19;;;14.51;42.90
50302;BME280;36550;50.472;19.744;2023-05-09T15:53:06;98614.62;;;14.53;43.18
50302;BME280;36550;50.472;19.744;2023-05-09T15:56:11;98612.22;;;14.66;43.09
50302;BME280;36550;50.472;19.744;2023-05-09T15:58:57;98610.67;;;14.78;42.58
50302;BME280;36550;50.472;19.744;2023-05-09T16:02:05;98604.33;;;14.78;42.23
50302;BME280;36550;50.472;19.744;2023-05-09T16:04:49;98606.23;;;14.70;42.33
50302;BME280;36550;50.472;19.744;2023-05-09T16:07:33;98598.98;;;14.57;42.33
50302;BME280;36550;50.472;19.744;2023-05-09T16:10:21;98596.35;;;14.42;42.61
50302;BME280;36550;50.472;19.744;2023-05-09T16:13:06;98594.51;;;14.26;42.98
50302;BME280;36550;50.472;19.744;2023-05-09T16:15:50;98588.55;;;14.11;43.25
50302;BME280;36550;50.472;19.744;2023-05-09T16:18:36;98587.11;;;14.02;43.50
50302;BME280;36550;50.472;19.744;2023-05-09T16:21:58;98584.04;;;14.05;43.91
50302;BME280;36550;50.472;19.744;2023-05-09T16:25:36;98579.92;;;14.17;44.36
50302;BME280;36550;50.472;19.744;2023-05-09T16:28:21;98579.42;;;14.28;44.36
50302;BME280;36550;50.472;19.744;2023-05-09T16:31:10;98584.52;;;14.29;44.14
50302;BME280;36550;50.472;19.744;2023-05-09T16:33:56;98578.10;;;14.23;43.51
50302;BME280;36550;50.472;19.744;2023-05-09T16:37:29;98575.83;;;14.11;43.68
50302;BME280;36550;50.472;19.744;2023-05-09T16:40:27;98571.59;;;13.98;43.74
50302;BME280;36550;50.472;19.744;2023-05-09T16:43:48;98571.96;;;13.88;44.08
50302;BME280;36550;50.472;19.744;2023-05-09T16:46:53;98565.04;;;13.84;44.09
50302;BME280;36550;50.472;19.744;2023-05-09T16:50:17;98559.92;;;13.83;44.13
50302;BME280;36550;50.472;19.744;2023-05-09T16:53:03;98558.89;;;13.85;44.36
50302;BME280;36550;50.472;19.744;2023-05-09T16:56:22;98550.51;;;13.85;44.53
50302;BME280;36550;50.472;19.744;2023-05-09T16:59:12;98554.42;;;13.79;44.57
50302;BME280;36550;50.472;19.744;2023-05-09T17:02:16;98553.27;;;13.69;44.39
50302;BME280;36550;50.472;19.744;2023-05-09T17:05:36;98549.96;;;13.56;44.52
50302;BME280;36550;50.472;19.744;2023-05-09T17:08:21;98546.23;;;13.43;44.57
50302;BME280;36550;50.472;19.744;2023-05-09T17:11:10;98549.00;;;13.32;44.73
50302;BME280;36550;50.472;19.744;2023-05-09T17:14:15;98548.15;;;13.20;44.61
50302;BME280;36550;50.472;19.744;2023-05-09T17:17:00;98548.39;;;13.10;44.82
50302;BME280;36550;50.472;19.744;2023-05-09T17:19:44;98546.46;;;13.00;44.99
50302;BME280;36550;50.472;19.744;2023-05-09T17:22:35;98544.92;;;12.90;45.32
50302;BME280;36550;50.472;19.744;2023-05-09T17:25:28;98543.70;;;12.81;45.56
50302;BME280;36550;50.472;19.744;2023-05-09T17:28:33;98541.86;;;12.72;45.62
50302;BME280;36550;50.472;19.744;2023-05-09T17:31:38;98539.88;;;12.62;46.05
50302;BME280;36550;50.472;19.744;2023-05-09T17:34:23;98537.98;;;12.54;46.17
50302;BME280;36550;50.472;19.744;2023-05-09T17:37:07;98537.12;;;12.44;46.27
50302;BME280;36550;50.472;19.744;2023-05-09T17:40:12;98531.95;;;12.33;46.59
50302;BME280;36550;50.472;19.744;2023-05-09T17:43:04;98538.75;;;12.23;46.77
50302;BME280;36550;50.472;19.744;2023-05-09T17:45:53;98544.41;;;12.12;47.07
50302;BME280;36550;50.472;19.744;2023-05-09T17:49:17;98545.91;;;12.01;47.35
50302;BME280;36550;50.472;19.744;2023-05-09T17:52:04;98544.19;;;11.90;47.71
50302;BME280;36550;50.472;19.744;2023-05-09T17:54:49;98547.44;;;11.81;47.92
50302;BME280;36550;50.472;19.744;2023-05-09T17:57:34;98547.10;;;11.70;48.18
50302;BME280;36550;50.472;19.744;2023-05-09T18:00:25;98549.39;;;11.61;48.38
50302;BME280;36550;50.472;19.744;2023-05-09T18:04:11;98545.72;;;11.48;48.57
50302;BME280;36550;50.472;19.744;2023-05-09T18:07:01;98543.98;;;11.37;49.02
50302;BME280;36550;50.472;19.744;2023-05-09T18:09:48;98540.09;;;11.23;49.27
50302;BME280;36550;50.472;19.744;2023-05-09T18:12:57;98540.68;;;11.09;49.53
50302;BME280;36550;50.472;19.744;2023-05-09T18:15:46;98538.79;;;10.97;49.77
50302;BME280;36550;50.472;19.744;2023-05-09T18:18:47;98535.98;;;10.85;50.18
50302;BME280;36550;50.472;19.744;2023-05-09T18:21:31;98534.88;;;10.73;50.24
50302;BME280;36550;50.472;19.744;2023-05-09T18:24:23;98534.41;;;10.62;50.45
50302;BME280;36550;50.472;19.744;2023-05-09T18:27:27;98531.45;;;10.47;50.64
50302;BME280;36550;50.472;19.744;2023-05-09T18:30:32;98533.02;;;10.32;50.92
50302;BME280;36550;50.472;19.744;2023-05-09T18:34:15;98532.71;;;10.18;51.15
50302;BME280;36550;50.472;19.744;2023-05-09T18:37:11;98539.88;;;10.03;51.47